createdAt,value
2023-03-19T00:01:05.517Z,14.45
2023-03-19T00:03:33.927Z,12.13
2023-03-19T00:06:02.674Z,11.27
2023-03-19T00:08:30.945Z,13.25
2023-03-19T00:10:59.261Z,15.85
2023-03-19T00:13:28.016Z,10.77
2023-03-19T00:15:57.593Z,17.63
2023-03-19T00:18:25.977Z,10.07
2023-03-19T00:20:54.272Z,14.57
2023-03-19T00:23:22.644Z,18.45
2023-03-19T00:25:50.935Z,12.13
2023-03-19T00:28:19.210Z,11.23
2023-03-19T00:30:47.608Z,14.32
2023-03-19T00:33:17.291Z,17.20
2023-03-19T00:35:46.261Z,16.37
2023-03-19T00:38:14.613Z,15.73
2023-03-19T00:40:42.901Z,17.98
2023-03-19T00:43:11.590Z,15.88
2023-03-19T00:45:39.874Z,10.95
2023-03-19T00:48:08.163Z,17.77
2023-03-19T00:50:37.880Z,12.68
2023-03-19T00:53:06.152Z,15.60
2023-03-19T00:55:34.791Z,16.20
2023-03-19T00:58:03.453Z,13.77
2023-03-19T01:03:01.460Z,12.27
2023-03-19T01:05:29.690Z,15.40
2023-03-19T01:08:02.600Z,15.43
2023-03-19T01:10:30.884Z,15.80
2023-03-19T01:12:59.231Z,14.32
2023-03-19T01:15:27.562Z,14.55
2023-03-19T01:17:55.866Z,16.20
2023-03-19T01:20:24.240Z,12.32
2023-03-19T01:22:52.735Z,16.55
2023-03-19T01:25:22.440Z,13.75
2023-03-19T01:27:52.399Z,16.57
2023-03-19T01:30:20.791Z,11.40
2023-03-19T01:32:49.156Z,15.13
2023-03-19T01:35:17.643Z,15.45
2023-03-19T01:37:45.911Z,11.85
2023-03-19T01:40:15.420Z,11.27
2023-03-19T01:42:55.649Z,17.05
2023-03-19T01:45:35.477Z,19.08
2023-03-19T01:48:03.950Z,10.67
2023-03-19T01:50:38.284Z,16.08
2023-03-19T01:53:06.764Z,14.10
2023-03-19T01:55:35.704Z,16.42
2023-03-19T01:58:07.051Z,14.70
2023-03-19T02:00:36.087Z,18.77
2023-03-19T02:03:04.883Z,14.05
2023-03-19T02:05:33.257Z,13.82
2023-03-19T02:08:05.172Z,11.77
2023-03-19T02:10:33.671Z,12.73
2023-03-19T02:13:02.219Z,17.80
2023-03-19T02:15:32.084Z,15.75
2023-03-19T02:18:00.404Z,14.85
2023-03-19T02:20:33.596Z,18.45
2023-03-19T02:23:08.324Z,16.27
2023-03-19T02:25:41.871Z,12.65
2023-03-19T02:28:12.198Z,11.18
2023-03-19T02:30:41.183Z,13.05
2023-03-19T02:33:11.311Z,13.85
2023-03-19T02:35:39.776Z,13.63
2023-03-19T02:38:08.066Z,11.27
2023-03-19T02:40:39.670Z,13.13
2023-03-19T02:43:08.163Z,13.48
2023-03-19T02:45:38.067Z,17.38
2023-03-19T02:48:06.867Z,17.25
2023-03-19T02:50:35.424Z,10.15
2023-03-19T02:53:03.930Z,9.93
2023-03-19T02:55:32.303Z,11.00
2023-03-19T02:58:00.745Z,13.55
2023-03-19T03:00:29.106Z,15.77
2023-03-19T03:02:59.272Z,14.70
2023-03-19T03:05:27.553Z,12.85
2023-03-19T03:07:55.803Z,14.43
2023-03-19T03:10:24.126Z,12.15
2023-03-19T03:12:52.607Z,13.63
2023-03-19T03:15:21.616Z,15.60
2023-03-19T03:17:49.937Z,13.07
2023-03-19T03:20:21.153Z,12.55
2023-03-19T03:22:49.777Z,16.50
2023-03-19T03:25:18.128Z,15.23
2023-03-19T03:27:46.606Z,13.73
2023-03-19T03:30:15.995Z,12.25
2023-03-19T03:32:44.878Z,15.00
2023-03-19T03:35:13.289Z,17.73
2023-03-19T03:37:42.903Z,14.75
2023-03-19T03:40:12.207Z,16.05
2023-03-19T03:42:40.610Z,15.02
2023-03-19T03:45:10.722Z,17.50
2023-03-19T03:47:39.561Z,17.15
2023-03-19T03:50:10.943Z,15.77
2023-03-19T03:52:39.867Z,14.60
2023-03-19T03:55:10.812Z,13.75
2023-03-19T03:57:39.092Z,20.10
2023-03-19T04:00:08.596Z,14.05
2023-03-19T04:02:36.940Z,15.75
2023-03-19T04:05:06.600Z,15.77
2023-03-19T04:07:34.805Z,13.75
2023-03-19T04:10:03.117Z,18.42
2023-03-19T04:12:32.879Z,17.13
2023-03-19T04:15:01.144Z,16.00
2023-03-19T04:17:29.370Z,17.48
2023-03-19T04:19:57.640Z,15.85
2023-03-19T04:22:25.982Z,15.98
2023-03-19T04:24:54.326Z,17.92
2023-03-19T04:27:22.587Z,18.98
2023-03-19T04:29:52.152Z,17.25
2023-03-19T04:32:20.359Z,15.18
2023-03-19T04:34:48.611Z,15.88
2023-03-19T04:37:16.995Z,17.67
2023-03-19T04:39:45.632Z,15.00
2023-03-19T04:42:14.320Z,19.00
2023-03-19T04:44:42.669Z,15.43
2023-03-19T04:47:12.534Z,14.13
2023-03-19T04:49:41.539Z,14.43
2023-03-19T04:52:10.418Z,15.20
2023-03-19T04:54:38.648Z,17.85
2023-03-19T04:57:07.211Z,16.00
2023-03-19T04:59:35.425Z,17.50
2023-03-19T05:02:03.819Z,13.60
2023-03-19T05:04:33.441Z,13.88
2023-03-19T05:07:01.836Z,14.68
2023-03-19T05:09:30.918Z,14.55
2023-03-19T05:11:59.327Z,17.25
2023-03-19T05:14:28.128Z,16.23
2023-03-19T05:16:56.359Z,16.75
2023-03-19T05:19:25.161Z,17.70
2023-03-19T05:21:54.731Z,16.00
2023-03-19T05:24:23.205Z,15.50
2023-03-19T05:26:51.464Z,16.98
2023-03-19T05:29:19.757Z,14.80
2023-03-19T05:31:48.123Z,14.38
2023-03-19T05:34:16.495Z,13.20
2023-03-19T05:36:44.681Z,13.82
2023-03-19T05:39:14.354Z,16.33
2023-03-19T05:41:42.648Z,17.13
2023-03-19T05:44:10.945Z,16.20
2023-03-19T05:46:39.245Z,15.23
2023-03-19T05:49:07.539Z,12.10
2023-03-19T05:51:35.971Z,12.80
2023-03-19T05:54:04.757Z,16.50
2023-03-19T05:56:34.559Z,12.02
2023-03-19T05:59:02.944Z,15.27
2023-03-19T06:01:31.424Z,18.50
2023-03-19T06:03:59.880Z,14.10
2023-03-19T06:06:28.256Z,15.30
2023-03-19T06:08:56.541Z,14.02
2023-03-19T06:11:24.824Z,18.63
2023-03-19T06:13:54.520Z,16.95
2023-03-19T06:16:22.803Z,14.73
2023-03-19T06:18:51.681Z,20.40
2023-03-19T06:21:19.977Z,15.45
2023-03-19T06:23:48.221Z,16.60
2023-03-19T06:26:16.520Z,15.13
2023-03-19T06:28:44.760Z,14.85
2023-03-19T06:31:14.647Z,14.85
2023-03-19T06:33:42.905Z,15.02
2023-03-19T06:36:11.323Z,20.15
2023-03-19T06:38:39.604Z,18.83
2023-03-19T06:41:07.878Z,14.98
2023-03-19T06:43:37.240Z,16.65
2023-03-19T06:46:08.800Z,13.27
2023-03-19T06:48:39.239Z,15.40
2023-03-19T06:51:07.706Z,16.17
2023-03-19T06:53:36.045Z,15.68
2023-03-19T06:56:04.661Z,12.73
2023-03-19T06:58:33.260Z,14.35
2023-03-19T07:01:01.618Z,15.75
2023-03-19T07:03:29.900Z,17.27
2023-03-19T07:05:59.652Z,17.05
2023-03-19T07:08:29.883Z,14.37
2023-03-19T07:10:58.321Z,12.55
2023-03-19T07:13:26.566Z,14.63
2023-03-19T07:15:54.855Z,14.50
2023-03-19T07:18:23.113Z,12.77
2023-03-19T07:20:52.893Z,14.77
2023-03-19T07:23:22.601Z,12.63
2023-03-19T07:25:50.901Z,17.80
2023-03-19T07:28:19.137Z,16.27
2023-03-19T07:30:47.417Z,16.88
2023-03-19T07:33:15.804Z,14.07
2023-03-19T07:35:44.037Z,14.20
2023-03-19T07:38:12.471Z,19.58
2023-03-19T07:40:51.342Z,13.00
2023-03-19T07:43:27.497Z,13.55
2023-03-19T07:45:55.752Z,14.10
2023-03-19T07:48:24.056Z,15.05
2023-03-19T07:50:52.876Z,15.95
2023-03-19T07:53:21.403Z,16.30
2023-03-19T07:55:51.033Z,17.75
2023-03-19T07:58:19.486Z,12.90
2023-03-19T08:00:48.193Z,13.95
2023-03-19T08:03:16.587Z,15.50
2023-03-19T08:05:44.927Z,16.17
2023-03-19T08:08:13.203Z,12.50
2023-03-19T08:10:41.872Z,13.75
2023-03-19T08:13:11.839Z,12.80
2023-03-19T08:15:40.286Z,15.05
2023-03-19T08:18:09.158Z,14.18
2023-03-19T08:20:37.452Z,13.07
2023-03-19T08:23:06.103Z,10.90
2023-03-19T08:25:34.472Z,11.73
2023-03-19T08:28:02.819Z,10.88
2023-03-19T08:30:33.198Z,8.27
2023-03-19T08:33:01.715Z,7.50
2023-03-19T08:35:30.479Z,10.93
2023-03-19T08:37:58.958Z,6.50
2023-03-19T08:40:27.408Z,5.45
2023-03-19T08:42:56.944Z,6.28
2023-03-19T08:45:25.681Z,5.05
2023-03-19T08:47:55.339Z,5.35
2023-03-19T08:50:23.641Z,6.03
2023-03-19T08:52:52.210Z,5.97
2023-03-19T08:55:20.825Z,3.60
2023-03-19T08:57:49.214Z,3.60
2023-03-19T09:00:19.503Z,4.25
2023-03-19T09:02:47.914Z,5.88
2023-03-19T09:05:20.252Z,7.90
2023-03-19T09:07:48.616Z,6.00
2023-03-19T09:10:16.966Z,6.68
2023-03-19T09:12:46.761Z,5.72
2023-03-19T09:15:17.061Z,6.95
2023-03-19T09:17:45.570Z,4.80
2023-03-19T09:20:14.168Z,8.18
2023-03-19T09:22:43.808Z,4.40
2023-03-19T09:25:12.611Z,5.77
2023-03-19T09:27:40.899Z,5.82
2023-03-19T09:30:10.745Z,7.85
2023-03-19T09:32:39.103Z,5.10
2023-03-19T09:35:08.700Z,2.42
2023-03-19T09:37:37.054Z,3.95
2023-03-19T09:40:08.597Z,4.00
2023-03-19T09:42:53.817Z,4.20
2023-03-19T09:45:22.305Z,3.20
2023-03-19T09:47:53.042Z,3.92
2023-03-19T09:50:24.192Z,4.97
2023-03-19T09:52:57.656Z,4.78
2023-03-19T09:55:37.592Z,5.35
2023-03-19T09:58:12.200Z,5.82
2023-03-19T10:00:40.692Z,8.63
2023-03-19T10:03:19.262Z,3.08
2023-03-19T10:05:53.271Z,4.35
2023-03-19T10:08:34.210Z,6.53
2023-03-19T10:11:15.348Z,5.60
2023-03-19T10:13:53.560Z,4.30
2023-03-19T10:16:23.408Z,8.77
2023-03-19T10:18:54.370Z,3.80
2023-03-19T10:21:27.329Z,4.10
2023-03-19T10:23:58.505Z,4.45
2023-03-19T10:26:31.382Z,4.57
2023-03-19T10:29:05.390Z,5.70
2023-03-19T10:31:43.972Z,4.78
2023-03-19T10:34:31.412Z,4.70
2023-03-19T10:37:01.760Z,4.32
2023-03-19T10:39:32.160Z,3.88
2023-03-19T10:42:11.361Z,3.22
2023-03-19T10:44:44.229Z,2.65
2023-03-19T10:47:14.428Z,5.75
2023-03-19T10:49:43.252Z,3.90
2023-03-19T10:52:19.911Z,5.13
2023-03-19T10:54:48.274Z,3.60
2023-03-19T10:57:26.749Z,4.03
2023-03-19T10:59:55.917Z,4.80
2023-03-19T11:02:27.935Z,3.55
2023-03-19T11:05:08.698Z,2.78
2023-03-19T11:07:37.840Z,8.60
2023-03-19T11:10:07.554Z,3.08
2023-03-19T11:12:37.794Z,5.90
2023-03-19T11:15:17.744Z,7.38
2023-03-19T11:17:48.221Z,5.20
2023-03-19T11:23:02.207Z,6.43
2023-03-19T11:25:32.589Z,4.90
2023-03-19T11:30:39.442Z,6.85
2023-03-19T11:33:16.452Z,4.43
2023-03-19T11:35:49.715Z,3.13
2023-03-19T11:38:21.387Z,4.32
2023-03-19T11:40:54.979Z,3.55
2023-03-19T11:43:40.929Z,2.97
2023-03-19T11:46:21.040Z,5.00
2023-03-19T11:49:12.233Z,5.22
2023-03-19T11:51:45.030Z,3.85
2023-03-19T11:54:21.668Z,5.65
2023-03-19T11:56:52.644Z,1.70
2023-03-19T11:59:43.377Z,3.90
2023-03-19T12:02:41.801Z,0.85
2023-03-19T12:05:18.862Z,5.45
2023-03-19T12:07:55.433Z,2.83
2023-03-19T12:10:30.081Z,3.78
2023-03-19T12:13:06.108Z,3.42
2023-03-19T12:15:39.478Z,3.80
2023-03-19T12:18:17.978Z,4.53
2023-03-19T12:20:54.506Z,3.10
2023-03-19T12:23:35.791Z,3.63
2023-03-19T12:26:06.150Z,3.60
2023-03-19T12:28:36.282Z,5.32
2023-03-19T12:31:27.768Z,4.47
2023-03-19T12:34:05.931Z,5.55
2023-03-19T12:36:38.480Z,3.60
2023-03-19T12:39:10.791Z,3.85
2023-03-19T12:41:43.003Z,4.38
2023-03-19T12:44:14.941Z,3.55
2023-03-19T12:46:46.909Z,4.88
2023-03-19T12:49:17.942Z,4.97
2023-03-19T12:51:47.893Z,4.30
2023-03-19T12:54:20.280Z,3.53
2023-03-19T12:56:53.413Z,3.00
2023-03-19T12:59:30.003Z,3.05
2023-03-19T13:02:04.565Z,3.80
2023-03-19T13:04:39.424Z,3.97
2023-03-19T13:07:11.441Z,2.78
2023-03-19T13:09:42.191Z,4.20
2023-03-19T13:12:13.274Z,2.88
2023-03-19T13:14:50.070Z,4.50
2023-03-19T13:17:25.829Z,3.50
2023-03-19T13:19:56.320Z,3.63
2023-03-19T13:24:54.467Z,3.58
2023-03-19T13:27:24.230Z,3.47
2023-03-19T13:30:08.616Z,3.38
2023-03-19T13:32:42.408Z,4.60
2023-03-19T13:35:19.702Z,3.92
2023-03-19T13:37:48.653Z,4.60
2023-03-19T13:40:47.349Z,4.35
2023-03-19T13:43:46.692Z,4.45
2023-03-19T13:46:46.215Z,3.80
2023-03-19T13:49:30.070Z,4.68
2023-03-19T13:52:04.497Z,5.35
2023-03-19T13:54:35.654Z,4.43
2023-03-19T13:57:19.440Z,3.10
2023-03-19T13:59:49.824Z,4.22
2023-03-19T14:02:47.915Z,3.45
2023-03-19T14:05:20.771Z,4.90
2023-03-19T14:07:54.234Z,3.75
2023-03-19T14:10:28.203Z,3.47
2023-03-19T14:13:05.361Z,3.42
2023-03-19T14:15:33.860Z,5.28
2023-03-19T14:18:05.881Z,3.05
2023-03-19T14:20:47.860Z,4.57
2023-03-19T14:23:23.654Z,4.18
2023-03-19T14:26:08.088Z,3.78
2023-03-19T14:28:41.487Z,3.78
2023-03-19T14:31:24.139Z,3.72
2023-03-19T14:33:57.085Z,4.13
2023-03-19T14:36:27.956Z,4.97
2023-03-19T14:38:59.133Z,3.70
2023-03-19T14:41:30.168Z,3.65
2023-03-19T14:44:31.155Z,4.35
2023-03-19T14:47:28.698Z,4.10
2023-03-19T14:50:16.066Z,3.75
2023-03-19T14:52:48.031Z,3.80
2023-03-19T14:55:17.540Z,4.43
2023-03-19T14:57:46.528Z,3.60
2023-03-19T15:00:17.435Z,4.40
2023-03-19T15:02:48.173Z,3.88
2023-03-19T15:05:21.815Z,4.65
2023-03-19T15:07:55.071Z,5.05
2023-03-19T15:10:25.044Z,4.45
2023-03-19T15:13:22.762Z,6.78
2023-03-19T15:16:03.027Z,3.40
2023-03-19T15:18:31.383Z,4.30
2023-03-19T15:20:59.861Z,7.72
2023-03-19T15:23:30.948Z,4.88
2023-03-19T15:26:01.299Z,5.22
2023-03-19T15:31:14.455Z,5.93
2023-03-19T15:33:48.128Z,7.13
2023-03-19T15:36:20.173Z,6.03
2023-03-19T15:38:53.976Z,4.55
2023-03-19T15:41:23.099Z,6.38
2023-03-19T15:43:51.486Z,5.15
2023-03-19T15:46:22.395Z,7.00
2023-03-19T15:48:52.544Z,4.95
2023-03-19T15:51:23.521Z,5.47
2023-03-19T15:53:53.592Z,4.20
2023-03-19T15:56:22.066Z,4.75
2023-03-19T15:58:53.401Z,3.88
2023-03-19T16:01:22.439Z,4.75
2023-03-19T16:03:52.780Z,7.20
2023-03-19T16:06:26.539Z,4.35
2023-03-19T16:08:58.171Z,2.67
2023-03-19T16:11:30.099Z,6.57
2023-03-19T16:13:59.690Z,25.98
2023-03-19T16:16:30.748Z,26.87
2023-03-19T16:19:00.106Z,8.23
2023-03-19T16:21:35.426Z,11.98
2023-03-19T16:24:10.488Z,5.90
2023-03-19T16:26:40.481Z,5.25
2023-03-19T16:29:19.294Z,6.20
2023-03-19T16:31:51.814Z,6.15
2023-03-19T16:34:26.338Z,6.15
2023-03-19T16:36:54.737Z,5.05
2023-03-19T16:39:33.882Z,5.35
2023-03-19T16:42:38.190Z,5.75
2023-03-19T16:45:19.956Z,6.93
2023-03-19T16:47:49.667Z,6.32
2023-03-19T16:50:19.337Z,6.47
2023-03-19T16:52:48.913Z,6.50
2023-03-19T16:55:21.587Z,6.87
2023-03-19T16:57:55.708Z,8.60
2023-03-19T17:00:24.849Z,6.82
2023-03-19T17:02:55.713Z,11.13
2023-03-19T17:05:24.008Z,8.82
2023-03-19T17:07:52.340Z,10.18
2023-03-19T17:10:23.508Z,9.25
2023-03-19T17:12:53.819Z,6.22
2023-03-19T17:15:25.786Z,9.48
2023-03-19T17:17:54.074Z,8.27
2023-03-19T17:20:24.385Z,7.28
2023-03-19T17:22:52.647Z,9.13
2023-03-19T17:25:22.672Z,9.45
2023-03-19T17:27:51.020Z,12.18
2023-03-19T17:30:19.779Z,15.68
2023-03-19T17:32:49.802Z,10.23
2023-03-19T17:35:20.530Z,14.52
2023-03-19T17:40:23.172Z,10.10
2023-03-19T17:42:52.257Z,10.98
2023-03-19T17:45:22.162Z,9.63
2023-03-19T17:47:53.236Z,9.30
2023-03-19T17:50:23.548Z,14.88
2023-03-19T17:52:52.746Z,10.68
2023-03-19T17:55:24.257Z,12.48
2023-03-19T17:57:53.732Z,16.40
2023-03-19T18:00:23.500Z,22.30
2023-03-19T18:02:53.321Z,24.70
2023-03-19T18:05:23.893Z,13.80
2023-03-19T18:07:55.020Z,14.05
2023-03-19T18:10:26.662Z,9.23
2023-03-19T18:12:54.940Z,14.00
2023-03-19T18:15:23.841Z,13.30
2023-03-19T18:17:53.241Z,16.35
2023-03-19T18:20:24.130Z,18.15
2023-03-19T18:22:52.352Z,14.90
2023-03-19T18:25:22.378Z,16.90
2023-03-19T18:27:53.336Z,15.65
2023-03-19T18:30:23.181Z,13.15
2023-03-19T18:32:53.018Z,11.63
2023-03-19T18:35:24.061Z,10.68
2023-03-19T18:37:53.531Z,12.90
2023-03-19T18:40:23.971Z,12.52
2023-03-19T18:42:53.809Z,9.48
2023-03-19T18:45:22.082Z,11.00
2023-03-19T18:47:50.546Z,9.38
2023-03-19T18:50:20.968Z,13.07
2023-03-19T18:52:51.515Z,11.00
2023-03-19T18:55:21.358Z,12.82
2023-03-19T18:57:53.701Z,10.32
2023-03-19T19:00:26.448Z,10.43
2023-03-19T19:02:56.600Z,10.73
2023-03-19T19:05:27.720Z,11.80
2023-03-19T19:07:57.001Z,11.15
2023-03-19T19:10:25.780Z,9.25
2023-03-19T19:12:56.169Z,6.65
2023-03-19T19:15:28.210Z,7.65
2023-03-19T19:17:56.499Z,7.93
2023-03-19T19:20:26.205Z,7.40
2023-03-19T19:22:54.912Z,6.57
2023-03-19T19:25:25.304Z,7.15
2023-03-19T19:27:57.915Z,11.07
2023-03-19T19:30:27.970Z,8.40
2023-03-19T19:32:57.402Z,12.65
2023-03-19T19:35:27.648Z,9.98
2023-03-19T19:37:56.389Z,8.73
2023-03-19T19:40:28.987Z,11.30
2023-03-19T19:42:57.378Z,11.10
2023-03-19T19:45:32.720Z,8.90
2023-03-19T19:48:01.229Z,9.75
2023-03-19T19:50:29.615Z,8.90
2023-03-19T19:52:58.675Z,10.38
2023-03-19T19:55:27.830Z,10.57
2023-03-19T19:57:56.503Z,12.45
2023-03-19T20:00:26.448Z,8.55
2023-03-19T20:02:56.800Z,8.90
2023-03-19T20:05:27.011Z,9.82
2023-03-19T20:07:56.714Z,10.05
2023-03-19T20:10:27.221Z,10.00
2023-03-19T20:12:57.564Z,11.98
2023-03-19T20:15:27.709Z,13.43
2023-03-19T20:17:57.538Z,8.77
2023-03-19T20:20:28.133Z,6.93
2023-03-19T20:25:26.591Z,6.03
2023-03-19T20:27:56.709Z,8.02
2023-03-19T20:30:26.483Z,7.93
2023-03-19T20:32:55.542Z,8.50
2023-03-19T20:35:26.783Z,7.88
2023-03-19T20:37:56.414Z,8.85
2023-03-19T20:40:27.283Z,8.65
2023-03-19T20:42:55.662Z,7.78
2023-03-19T20:45:25.751Z,4.93
2023-03-19T20:47:54.237Z,7.28
2023-03-19T20:50:26.022Z,7.30
2023-03-19T20:52:55.357Z,10.45
2023-03-19T20:55:25.335Z,9.23
2023-03-19T20:57:53.608Z,9.60
2023-03-19T21:00:24.709Z,14.13
2023-03-19T21:02:54.128Z,12.63
2023-03-19T21:05:22.850Z,17.63
2023-03-19T21:07:53.664Z,10.60
2023-03-19T21:10:27.349Z,7.65
2023-03-19T21:12:56.182Z,10.73
2023-03-19T21:15:24.645Z,16.75
2023-03-19T21:17:53.398Z,14.48
2023-03-19T21:20:23.409Z,10.55
2023-03-19T21:22:55.173Z,11.77
2023-03-19T21:25:25.966Z,13.20
2023-03-19T21:27:56.833Z,11.18
2023-03-19T21:30:25.075Z,10.20
2023-03-19T21:32:53.983Z,9.93
2023-03-19T21:35:23.845Z,10.98
2023-03-19T21:37:54.219Z,10.77
2023-03-19T21:40:24.091Z,10.85
2023-03-19T21:42:54.683Z,10.10
2023-03-19T21:48:00.661Z,13.43
2023-03-19T21:50:29.087Z,11.52
2023-03-19T21:53:01.612Z,12.52
2023-03-19T21:55:30.042Z,13.60
2023-03-19T21:57:58.782Z,9.52
2023-03-19T22:00:27.056Z,12.32
2023-03-19T22:02:55.711Z,14.43
2023-03-19T22:05:25.976Z,13.48
2023-03-19T22:07:54.690Z,11.20
2023-03-19T22:10:28.221Z,13.68
2023-03-19T22:12:56.532Z,12.68
2023-03-19T22:15:31.112Z,11.77
2023-03-19T22:17:59.879Z,12.68
2023-03-19T22:20:28.215Z,9.20
2023-03-19T22:22:56.632Z,12.40
2023-03-19T22:25:30.061Z,12.20
2023-03-19T22:27:58.439Z,13.25
2023-03-19T22:30:35.693Z,13.90
2023-03-19T22:33:04.869Z,12.82
2023-03-19T22:35:33.242Z,12.70
2023-03-19T22:38:01.536Z,12.60
2023-03-19T22:40:31.095Z,12.93
2023-03-19T22:42:59.367Z,11.05
2023-03-19T22:45:28.829Z,13.02
2023-03-19T22:47:58.228Z,13.85
2023-03-19T22:50:28.616Z,13.85
2023-03-19T22:52:57.479Z,14.48
2023-03-19T22:55:26.172Z,15.07
2023-03-19T22:57:55.974Z,12.48
2023-03-19T23:00:25.900Z,11.45
2023-03-19T23:02:57.442Z,12.38
2023-03-19T23:05:31.141Z,10.32
2023-03-19T23:07:59.488Z,10.90
2023-03-19T23:10:29.936Z,10.13
2023-03-19T23:13:00.250Z,11.63
2023-03-19T23:15:30.868Z,11.85
2023-03-19T23:20:29.123Z,11.18
2023-03-19T23:22:57.693Z,7.65
2023-03-19T23:25:28.425Z,7.93
2023-03-19T23:28:01.149Z,8.63
2023-03-19T23:30:31.708Z,8.45
2023-03-19T23:35:31.315Z,8.48
2023-03-19T23:37:59.593Z,7.88
2023-03-19T23:40:31.349Z,8.75
2023-03-19T23:43:02.516Z,7.93
2023-03-19T23:45:35.407Z,8.13
2023-03-19T23:48:05.957Z,7.30
2023-03-19T23:50:34.757Z,7.85
2023-03-19T23:53:03.028Z,8.00
2023-03-19T23:55:31.616Z,8.55
2023-03-19T23:58:02.983Z,7.28
